Time;durP1;ratioP1;P1;durP2;ratioP2;P2;SDS_P1;SDS_P2;PMS_P1;PMS_P2;Temp;Humidity;BMP_temperature;BMP_pressure;BME280_temperature;BME280_humidity;BME280_pressure;Samples;Min_cycle;Max_cycle;Signal;HPM_P1;HPM_P2
2022/09/30 00:01:31;;;;;;;5.72;4.50;;;;;;;8.15;72.09;98017.47;5104559;28;20502;-81
2022/09/30 00:03:57;;;;;;;9.10;5.75;;;;;;;8.08;72.79;98024.06;5108289;28;20050;-83
2022/09/30 00:06:28;;;;;;;9.60;5.72;;;;;;;7.86;73.42;97997.56;5110125;28;20957;-82
2022/09/30 00:08:54;;;;;;;5.75;5.10;;;;;;;8.09;72.87;98033.63;5108351;28;20023;-82
2022/09/30 00:11:24;;;;;;;5.65;4.68;;;;;;;8.17;72.26;98025.16;5105820;28;20036;-82
2022/09/30 00:13:51;;;;;;;6.82;5.47;;;;;;;8.18;71.87;98040.09;5108801;27;20525;-82
2022/09/30 00:16:19;;;;;;;5.85;5.05;;;;;;;8.14;72.22;98038.97;5106973;28;20020;-82
2022/09/30 00:18:46;;;;;;;5.03;4.53;;;;;;;7.85;72.45;98013.72;5098529;28;20118;-82
2022/09/30 00:21:14;;;;;;;8.25;5.22;;;;;;;7.88;72.44;98005.25;5121498;27;20035;-82
2022/09/30 00:23:40;;;;;;;4.47;4.07;;;;;;;8.04;71.69;98033.56;5109864;28;20537;-82
2022/09/30 00:26:09;;;;;;;6.35;5.57;;;;;;;7.99;71.94;98028.22;5104459;28;20032;-82
2022/09/30 00:28:34;;;;;;;6.40;5.15;;;;;;;7.94;72.22;98031.63;5084658;28;20372;-81
2022/09/30 00:31:03;;;;;;;6.35;5.72;;;;;;;7.88;72.74;98042.47;5104065;28;20042;-82
2022/09/30 00:33:28;;;;;;;6.55;5.90;;;;;;;7.87;72.95;98035.53;5109379;27;20031;-82
2022/09/30 00:35:54;;;;;;;5.47;4.97;;;;;;;7.85;72.51;98041.09;5106204;28;20031;-82
2022/09/30 00:38:19;;;;;;;6.60;5.20;;;;;;;7.96;72.31;98045.47;5102321;28;20049;-83
2022/09/30 00:40:45;;;;;;;5.63;4.88;;;;;;;7.82;72.50;98011.59;5106857;28;20023;-82
2022/09/30 00:43:20;;;;;;;6.00;5.13;;;;;;;7.88;72.94;98043.25;5082549;28;20024;-82
2022/09/30 00:46:05;;;;;;;6.28;5.70;;;;;;;7.84;72.61;98022.75;5104078;28;20024;-83
2022/09/30 00:48:37;;;;;;;6.78;5.95;;;;;;;7.80;72.09;98032.28;5104597;28;20031;-82
2022/09/30 00:51:04;;;;;;;6.07;5.47;;;;;;;7.72;72.83;98025.56;5110491;28;20023;-80
2022/09/30 00:53:51;;;;;;;5.75;4.82;;;;;;;7.87;72.04;98048.81;5110349;28;20478;-80
2022/09/30 00:56:30;;;;;;;6.00;5.00;;;;;;;7.85;72.55;98043.75;5108781;28;20161;-81
2022/09/30 00:59:03;;;;;;;6.57;5.28;;;;;;;7.87;71.57;98043.50;5106162;28;20043;-80
2022/09/30 01:01:29;;;;;;;5.30;4.88;;;;;;;7.68;72.62;98021.00;5105842;28;20058;-81
2022/09/30 01:04:02;;;;;;;6.30;5.70;;;;;;;7.63;72.80;98021.75;5104956;28;20376;-80
2022/09/30 01:06:28;;;;;;;6.45;5.70;;;;;;;7.69;72.81;98039.31;5108686;28;20511;-80
2022/09/30 01:08:54;;;;;;;6.82;5.22;;;;;;;7.62;72.54;98025.47;5105674;28;20031;-81
2022/09/30 01:11:20;;;;;;;10.02;5.45;;;;;;;7.72;72.87;98032.72;5078602;28;20035;-81
2022/09/30 01:13:51;;;;;;;5.85;5.35;;;;;;;7.81;72.92;98044.50;5104628;27;20098;-81
2022/09/30 01:16:22;;;;;;;8.52;6.75;;;;;;;7.70;72.61;98042.78;5105870;28;20476;-81
2022/09/30 01:19:05;;;;;;;7.20;5.82;;;;;;;7.67;72.96;98032.66;5104540;28;20034;-80
2022/09/30 01:21:33;;;;;;;8.10;5.90;;;;;;;7.68;73.22;98039.59;5108135;28;20081;-80
2022/09/30 01:24:22;;;;;;;6.60;5.20;;;;;;;7.63;72.90;98042.16;5103210;28;20028;-81
2022/09/30 01:27:29;;;;;;;5.95;5.35;;;;;;;7.68;73.48;98050.19;5081601;28;20445;-80
2022/09/30 01:30:24;;;;;;;8.35;5.88;;;;;;;7.59;73.11;98049.84;5088288;27;20746;-80
2022/09/30 01:33:04;;;;;;;10.00;5.63;;;;;;;7.58;73.31;98048.22;5048193;28;20048;-81
2022/09/30 01:35:54;;;;;;;7.72;5.97;;;;;;;7.60;73.49;98048.00;5106306;28;20024;-81
2022/09/30 01:38:56;;;;;;;8.60;6.60;;;;;;;7.40;73.06;98020.16;5101547;28;20024;-81
2022/09/30 01:41:42;;;;;;;6.30;5.60;;;;;;;7.49;72.56;98039.13;5071591;28;20035;-81
2022/09/30 01:44:14;;;;;;;7.72;6.18;;;;;;;7.60;73.02;98048.00;5101262;28;20118;-81
2022/09/30 01:46:51;;;;;;;6.82;5.78;;;;;;;7.49;73.36;98047.88;5101350;28;20050;-82
2022/09/30 01:49:40;;;;;;;9.55;6.50;;;;;;;7.49;72.47;98041.78;5099683;28;20028;-81
2022/09/30 01:52:15;;;;;;;7.22;6.45;;;;;;;7.49;73.20;98052.41;5096677;28;20042;-81
2022/09/30 01:55:12;;;;;;;9.45;6.70;;;;;;;7.43;73.49;98050.72;5100316;28;20123;-80
2022/09/30 01:57:55;;;;;;;12.27;7.18;;;;;;;7.41;72.98;98053.63;5098990;28;20044;-80
2022/09/30 02:00:21;;;;;;;9.60;6.43;;;;;;;7.40;72.58;98044.03;5098315;28;20098;-80
2022/09/30 02:02:52;;;;;;;9.13;6.22;;;;;;;7.29;73.08;98028.25;5100240;28;20031;-81
2022/09/30 02:05:32;;;;;;;7.00;6.30;;;;;;;7.31;74.06;98056.16;5098678;28;20028;-81
2022/09/30 02:08:15;;;;;;;6.35;5.68;;;;;;;7.33;73.40;98043.44;5101320;28;20035;-81
2022/09/30 02:10:52;;;;;;;9.30;6.75;;;;;;;7.41;72.69;98055.47;5105441;27;20031;-81
2022/09/30 02:13:23;;;;;;;7.68;6.88;;;;;;;7.39;72.49;98061.03;5105132;28;20065;-80
2022/09/30 02:15:56;;;;;;;9.20;7.25;;;;;;;7.29;72.70;98039.69;5103812;28;20110;-81
2022/09/30 02:18:38;;;;;;;6.35;5.75;;;;;;;7.27;73.08;98025.81;5101564;28;20469;-80
2022/09/30 02:21:06;;;;;;;11.07;6.88;;;;;;;7.35;72.88;98059.94;5101759;28;20071;-81
2022/09/30 02:23:40;;;;;;;14.82;7.70;;;;;;;7.30;73.17;98051.88;5105282;28;20059;-81
2022/09/30 02:26:26;;;;;;;7.13;6.43;;;;;;;7.27;73.38;98036.44;5097611;28;20111;-81
2022/09/30 02:28:58;;;;;;;6.85;6.00;;;;;;;7.32;73.30;98044.47;5103491;28;20130;-80
2022/09/30 02:31:25;;;;;;;9.48;6.45;;;;;;;7.25;72.75;98049.16;5101116;28;20050;-81
2022/09/30 02:33:58;;;;;;;6.97;6.10;;;;;;;7.20;73.07;98038.50;5087812;28;20036;-80
2022/09/30 02:36:35;;;;;;;6.70;5.90;;;;;;;7.28;73.07;98045.22;5105240;28;20969;-81
2022/09/30 02:39:09;;;;;;;7.60;6.78;;;;;;;7.21;72.18;98048.06;5101835;28;20124;-81
2022/09/30 02:41:43;;;;;;;8.20;6.53;;;;;;;7.15;73.22;98048.22;5106634;28;20498;-82
2022/09/30 02:44:08;;;;;;;8.13;6.65;;;;;;;7.20;72.18;98057.09;5107523;28;20543;-82
2022/09/30 02:47:04;;;;;;;8.30;6.07;;;;;;;7.14;72.87;98052.72;5102475;28;20027;-81
2022/09/30 02:49:37;;;;;;;7.30;5.45;;;;;;;7.11;72.44;98069.16;5103146;28;20047;-81
2022/09/30 02:52:30;;;;;;;7.85;6.82;;;;;;;7.10;72.18;98072.06;5100817;28;20023;-82
2022/09/30 02:55:14;;;;;;;8.32;6.40;;;;;;;6.90;72.40;98045.25;5100295;28;20073;-82
2022/09/30 02:57:51;;;;;;;7.38;5.82;;;;;;;7.12;72.89;98085.88;5101873;28;20507;-81
2022/09/30 03:00:17;;;;;;;7.63;5.88;;;;;;;7.14;72.02;98089.09;5105791;28;20053;-82
2022/09/30 03:02:42;;;;;;;8.70;6.60;;;;;;;7.06;72.24;98086.84;5105565;28;20117;-82
2022/09/30 03:05:09;;;;;;;8.68;7.38;;;;;;;6.87;72.66;98057.16;5102132;28;20475;-81
2022/09/30 03:07:35;;;;;;;7.50;6.65;;;;;;;7.00;72.73;98072.72;5099060;28;20443;-82
2022/09/30 03:10:00;;;;;;;6.80;6.10;;;;;;;6.86;72.12;98057.41;5103095;28;20032;-81
2022/09/30 03:12:44;;;;;;;9.88;6.93;;;;;;;6.90;73.13;98064.63;5095949;28;20030;-81
2022/09/30 03:15:38;;;;;;;7.65;6.85;;;;;;;7.01;72.36;98086.78;5104788;28;20028;-81
2022/09/30 03:18:16;;;;;;;10.88;6.22;;;;;;;6.99;72.15;98089.66;5100198;28;20026;-81
2022/09/30 03:20:46;;;;;;;8.63;6.28;;;;;;;6.85;72.50;98074.34;5098520;28;20063;-82
2022/09/30 03:23:28;;;;;;;7.22;6.47;;;;;;;6.95;72.61;98098.34;5084413;28;20685;-81
2022/09/30 03:26:05;;;;;;;7.57;6.78;;;;;;;6.96;72.82;98099.97;5105046;28;20028;-81
2022/09/30 03:28:49;;;;;;;9.50;6.60;;;;;;;6.91;72.74;98100.69;5101753;28;20054;-81
2022/09/30 03:31:33;;;;;;;8.88;7.25;;;;;;;6.88;72.56;98105.69;5102303;28;20076;-81
2022/09/30 03:34:12;;;;;;;9.27;6.20;;;;;;;6.77;72.45;98104.75;5101424;28;20893;-81
2022/09/30 03:36:44;;;;;;;7.15;6.45;;;;;;;6.86;72.24;98108.56;5104265;28;20032;-82
2022/09/30 03:39:09;;;;;;;7.38;6.63;;;;;;;6.83;72.18;98111.72;5103033;28;20437;-81
2022/09/30 03:41:44;;;;;;;9.10;6.68;;;;;;;6.71;71.54;98097.75;5102166;28;20119;-82
2022/09/30 03:44:23;;;;;;;8.05;6.78;;;;;;;6.69;72.11;98103.28;5095863;28;20024;-81
2022/09/30 03:46:53;;;;;;;6.93;5.93;;;;;;;6.60;72.30;98099.44;5101556;28;20138;-82
2022/09/30 03:49:27;;;;;;;9.18;7.07;;;;;;;6.70;72.10;98117.38;5105219;28;20503;-81
2022/09/30 03:51:53;;;;;;;8.68;6.65;;;;;;;6.75;72.15;98131.50;5099171;28;20368;-83
2022/09/30 03:54:21;;;;;;;8.05;6.78;;;;;;;6.77;72.07;98123.31;5119980;27;20364;-82
2022/09/30 03:56:47;;;;;;;9.93;6.43;;;;;;;6.85;71.78;98130.03;5086258;28;20035;-81
2022/09/30 03:59:26;;;;;;;7.90;6.22;;;;;;;6.81;71.71;98121.78;5107683;27;20056;-81
2022/09/30 04:01:52;;;;;;;7.63;6.00;;;;;;;6.74;71.82;98129.91;5102184;28;20487;-82
2022/09/30 04:04:18;;;;;;;8.18;6.53;;;;;;;6.64;71.67;98126.28;5106701;28;20035;-80
2022/09/30 04:06:43;;;;;;;8.02;6.85;;;;;;;6.62;71.96;98138.94;5083002;28;20094;-80
2022/09/30 04:09:09;;;;;;;6.65;5.70;;;;;;;6.71;71.97;98135.69;5108213;28;20027;-80
2022/09/30 04:11:34;;;;;;;7.18;5.45;;;;;;;6.62;71.78;98137.13;5106149;28;20035;-80
2022/09/30 04:14:00;;;;;;;6.75;5.47;;;;;;;6.59;72.33;98137.63;5086742;28;20028;-80
2022/09/30 04:16:28;;;;;;;9.93;6.88;;;;;;;6.53;71.98;98119.22;5097992;28;20081;-80
2022/09/30 04:18:53;;;;;;;6.68;5.95;;;;;;;6.59;71.66;98142.09;5100736;28;20035;-81
2022/09/30 04:21:18;;;;;;;6.82;5.68;;;;;;;6.57;72.01;98138.88;5101885;27;20027;-80
2022/09/30 04:23:44;;;;;;;12.15;6.40;;;;;;;6.46;72.70;98132.63;5101939;28;20046;-80
2022/09/30 04:26:12;;;;;;;9.35;6.18;;;;;;;6.36;72.03;98124.47;5081244;28;20494;-80
2022/09/30 04:28:37;;;;;;;7.43;6.30;;;;;;;6.43;72.25;98135.72;5098033;28;20027;-80
2022/09/30 04:31:05;;;;;;;7.53;5.78;;;;;;;6.46;72.34;98145.06;5087264;28;20046;-80
2022/09/30 04:33:31;;;;;;;8.02;6.55;;;;;;;6.30;72.06;98125.44;5106383;28;20035;-80
2022/09/30 04:35:58;;;;;;;9.45;7.18;;;;;;;6.42;72.62;98160.63;5117705;27;20693;-80
2022/09/30 04:38:24;;;;;;;8.23;7.05;;;;;;;6.25;73.04;98135.13;5100480;28;20039;-80
2022/09/30 04:40:51;;;;;;;8.95;7.40;;;;;;;6.29;72.71;98146.88;5101839;28;20023;-81
2022/09/30 04:43:22;;;;;;;8.43;7.05;;;;;;;6.20;72.78;98140.34;5108079;28;20024;-81
2022/09/30 04:45:48;;;;;;;10.23;7.05;;;;;;;6.35;72.19;98167.13;5099457;28;20638;-81
2022/09/30 04:48:15;;;;;;;9.20;7.90;;;;;;;6.32;72.31;98167.59;5077052;28;20028;-81
2022/09/30 04:50:41;;;;;;;13.63;8.23;;;;;;;6.26;72.07;98156.09;5106176;28;20055;-81
2022/09/30 04:53:13;;;;;;;8.05;7.07;;;;;;;6.34;71.78;98163.66;5083674;28;20032;-81
2022/09/30 04:55:39;;;;;;;8.10;7.30;;;;;;;6.29;72.10;98168.09;5108568;28;20027;-81
2022/09/30 04:58:05;;;;;;;7.75;6.95;;;;;;;6.19;72.79;98174.00;5109584;28;20040;-81
2022/09/30 05:00:30;;;;;;;8.95;7.22;;;;;;;6.17;72.05;98165.47;5094658;28;20514;-81
2022/09/30 05:02:56;;;;;;;10.35;7.68;;;;;;;6.05;72.72;98165.50;5093115;28;20036;-81
2022/09/30 05:05:22;;;;;;;10.15;7.57;;;;;;;6.05;72.29;98165.50;5083807;28;20025;-81
2022/09/30 05:07:47;;;;;;;7.13;6.43;;;;;;;6.17;72.29;98191.97;5091755;28;20031;-81
2022/09/30 05:10:13;;;;;;;8.68;6.88;;;;;;;6.05;72.43;98170.00;5104079;28;20028;-81
2022/09/30 05:12:39;;;;;;;8.52;7.18;;;;;;;6.24;72.45;98194.47;5094475;28;20019;-81
2022/09/30 05:15:06;;;;;;;9.23;6.93;;;;;;;6.22;72.27;98196.56;5094323;28;20372;-81
2022/09/30 05:17:31;;;;;;;9.77;6.90;;;;;;;6.11;72.94;98189.47;5110578;28;20364;-81
2022/09/30 05:19:57;;;;;;;9.00;7.53;;;;;;;6.10;72.07;98190.47;5109307;28;20038;-81
2022/09/30 05:22:23;;;;;;;7.50;6.70;;;;;;;6.03;72.22;98199.38;5082614;28;20024;-80
2022/09/30 05:24:50;;;;;;;8.52;7.57;;;;;;;6.11;72.69;98211.47;5112132;28;20043;-81
2022/09/30 05:27:16;;;;;;;10.70;7.82;;;;;;;6.20;72.40;98215.34;5109913;28;20043;-81
2022/09/30 05:29:42;;;;;;;9.45;7.82;;;;;;;6.11;72.71;98221.25;5104939;28;20047;-81
2022/09/30 05:32:08;;;;;;;9.85;7.43;;;;;;;6.14;72.43;98223.44;5093814;28;20031;-81
2022/09/30 05:34:33;;;;;;;10.10;7.80;;;;;;;6.17;72.55;98228.25;5104953;28;20427;-81
2022/09/30 05:36:59;;;;;;;11.57;7.93;;;;;;;5.94;71.92;98200.78;5090253;28;20469;-81
2022/09/30 05:39:24;;;;;;;9.45;7.30;;;;;;;6.04;71.87;98219.53;5111126;28;20027;-81
2022/09/30 05:41:49;;;;;;;10.77;7.90;;;;;;;6.13;72.57;98229.75;5107115;28;20089;-81
2022/09/30 05:44:15;;;;;;;10.15;8.20;;;;;;;6.07;72.65;98232.31;5110292;28;20068;-81
2022/09/30 05:46:42;;;;;;;9.57;7.80;;;;;;;6.04;72.38;98216.09;5108578;28;20028;-81
2022/09/30 05:49:08;;;;;;;11.85;8.80;;;;;;;6.12;72.09;98233.44;5111274;28;20027;-81
2022/09/30 05:51:33;;;;;;;9.68;7.75;;;;;;;6.02;72.53;98216.31;5103646;28;20032;-81
2022/09/30 05:53:59;;;;;;;14.10;8.27;;;;;;;5.91;73.30;98203.09;5100254;28;20514;-81
2022/09/30 05:56:24;;;;;;;10.73;8.30;;;;;;;6.19;72.84;98228.81;5107062;28;20073;-81
2022/09/30 05:58:50;;;;;;;17.08;9.52;;;;;;;6.33;73.56;98240.75;5085549;28;20040;-81
2022/09/30 06:01:16;;;;;;;14.77;9.38;;;;;;;6.19;73.47;98228.81;5102718;28;20436;-81
2022/09/30 06:03:43;;;;;;;10.95;7.78;;;;;;;6.01;74.13;98220.00;5108086;28;20032;-81
2022/09/30 06:06:09;;;;;;;13.07;8.65;;;;;;;6.27;73.64;98252.31;5106106;28;20019;-81
2022/09/30 06:08:35;;;;;;;12.90;8.93;;;;;;;6.30;74.16;98262.44;5108107;28;20475;-81
2022/09/30 06:11:00;;;;;;;9.20;7.07;;;;;;;6.13;74.81;98237.72;5108645;28;20031;-81
2022/09/30 06:13:27;;;;;;;7.47;6.47;;;;;;;6.33;74.44;98256.66;5089301;28;20506;-81
2022/09/30 06:16:00;;;;;;;8.30;6.72;;;;;;;6.46;74.85;98256.38;5102640;28;20067;-81
2022/09/30 06:18:27;;;;;;;7.15;6.45;;;;;;;6.49;74.90;98269.97;5078742;28;20028;-81
2022/09/30 06:21:01;;;;;;;7.50;6.05;;;;;;;6.54;74.62;98272.72;5104400;28;20036;-81
2022/09/30 06:23:28;;;;;;;6.38;5.18;;;;;;;6.47;74.87;98268.59;5107124;28;20036;-81
2022/09/30 06:25:54;;;;;;;11.35;5.65;;;;;;;6.62;74.60;98282.13;5105752;28;20028;-81
2022/09/30 06:28:20;;;;;;;7.03;5.35;;;;;;;6.53;74.94;98262.38;5107912;28;20047;-81
2022/09/30 06:30:46;;;;;;;13.07;5.90;;;;;;;6.62;74.28;98282.94;5107767;28;20076;-81
2022/09/30 06:33:12;;;;;;;8.45;6.10;;;;;;;6.11;76.85;98269.75;5105240;28;20445;-81
2022/09/30 06:35:40;;;;;;;7.78;5.60;;;;;;;6.65;75.39;98282.47;5103397;28;20467;-81
2022/09/30 06:38:06;;;;;;;6.28;5.20;;;;;;;6.50;75.38;98258.34;5094905;28;20047;-81
2022/09/30 06:40:31;;;;;;;5.57;4.78;;;;;;;6.73;74.75;98284.75;5105387;28;20057;-81
2022/09/30 06:42:59;;;;;;;8.02;5.93;;;;;;;6.67;74.61;98274.28;5105843;28;20028;-81
2022/09/30 06:45:24;;;;;;;10.18;5.47;;;;;;;6.71;74.57;98307.22;5109136;28;20028;-81
2022/09/30 06:47:50;;;;;;;6.30;5.70;;;;;;;6.70;74.59;98276.47;5099232;28;20197;-82
2022/09/30 06:50:20;;;;;;;7.53;5.85;;;;;;;6.69;75.66;98299.53;5107751;28;20027;-81
2022/09/30 06:52:47;;;;;;;6.03;5.28;;;;;;;6.65;75.62;98306.34;5105697;28;20028;-82
2022/09/30 06:55:12;;;;;;;7.57;6.00;;;;;;;6.39;76.58;98293.63;5096607;28;20038;-81
2022/09/30 06:57:40;;;;;;;16.48;8.30;;;;;;;6.67;75.80;98285.69;5079641;28;20031;-81
2022/09/30 07:00:06;;;;;;;9.73;6.50;;;;;;;6.80;75.44;98301.31;5096451;28;20034;-81
2022/09/30 07:02:33;;;;;;;11.23;6.57;;;;;;;6.77;75.72;98295.69;5102488;28;20063;-81
2022/09/30 07:04:58;;;;;;;7.93;6.45;;;;;;;6.85;75.43;98291.84;5097990;28;20127;-82
2022/09/30 07:07:24;;;;;;;8.93;6.65;;;;;;;6.35;78.97;98291.69;5107938;28;20102;-81
2022/09/30 07:09:49;;;;;;;9.07;6.93;;;;;;;6.96;76.82;98312.22;5103928;28;20490;-81
2022/09/30 07:12:16;;;;;;;21.83;10.20;;;;;;;6.24;79.49;98311.88;5103923;28;20059;-81
2022/09/30 07:14:41;;;;;;;12.65;7.63;;;;;;;6.63;77.96;98289.88;5094558;28;20039;-81
2022/09/30 07:17:07;;;;;;;9.02;7.03;;;;;;;6.86;76.93;98296.91;5098647;28;20540;-81
2022/09/30 07:19:33;;;;;;;10.05;6.70;;;;;;;7.18;76.56;98305.97;5107227;28;20043;-82
2022/09/30 07:24:43;;;;;;;13.27;7.68;;;;;;;7.27;76.15;98320.44;5104984;28;20088;-81
2022/09/30 07:27:09;;;;;;;8.60;6.78;;;;;;;7.31;76.35;98326.09;5082485;28;20483;-81
2022/09/30 07:29:34;;;;;;;9.43;7.30;;;;;;;7.17;76.84;98308.84;5104177;28;20126;-80
2022/09/30 07:31:59;;;;;;;11.45;6.63;;;;;;;7.28;76.46;98308.78;5106883;28;20110;-80
2022/09/30 07:34:25;;;;;;;8.63;6.22;;;;;;;7.29;76.15;98283.88;5105150;28;20039;-81
2022/09/30 07:36:50;;;;;;;8.70;6.63;;;;;;;7.53;76.52;98325.13;5073172;28;20031;-80
2022/09/30 07:39:15;;;;;;;8.80;7.07;;;;;;;7.43;76.89;98321.50;5105455;28;20411;-81
2022/09/30 07:41:43;;;;;;;9.18;6.03;;;;;;;7.43;76.35;98293.09;5085842;28;20076;-80
2022/09/30 07:44:13;;;;;;;7.95;6.28;;;;;;;7.55;77.81;98328.38;5106260;28;20498;-80
2022/09/30 07:46:39;;;;;;;7.80;6.45;;;;;;;7.38;78.59;98321.44;5106328;28;20088;-80
2022/09/30 07:49:11;;;;;;;7.63;6.32;;;;;;;7.70;77.77;98322.47;5109165;28;20089;-81
2022/09/30 07:51:39;;;;;;;8.75;6.50;;;;;;;7.83;76.43;98331.97;5109331;28;20039;-81
2022/09/30 07:54:12;;;;;;;11.43;7.10;;;;;;;7.79;77.00;98322.88;5103735;28;20524;-80
2022/09/30 07:56:39;;;;;;;8.20;6.78;;;;;;;7.85;76.69;98333.34;5101690;28;20100;-80
2022/09/30 07:59:05;;;;;;;8.32;6.55;;;;;;;7.64;78.52;98341.22;5105016;28;20050;-80
2022/09/30 08:01:31;;;;;;;8.90;7.40;;;;;;;7.97;77.23;98333.25;5106393;28;20023;-80
2022/09/30 08:04:03;;;;;;;9.55;7.38;;;;;;;7.89;77.06;98337.09;5106538;28;20050;-80
2022/09/30 08:06:30;;;;;;;17.58;10.43;;;;;;;7.61;80.13;98341.72;5107040;28;20423;-80
2022/09/30 08:08:57;;;;;;;15.13;9.45;;;;;;;7.38;81.25;98342.69;5108515;28;20068;-80
2022/09/30 08:11:23;;;;;;;11.90;7.65;;;;;;;7.65;79.76;98330.34;5108651;28;22016;-80
2022/09/30 08:13:55;;;;;;;12.50;9.20;;;;;;;6.98;85.11;98342.75;5108186;28;20028;-80
2022/09/30 08:16:23;;;;;;;11.35;9.13;;;;;;;6.92;84.13;98330.47;5087549;28;20060;-81
2022/09/30 08:18:48;;;;;;;13.02;8.73;;;;;;;7.36;82.43;98352.75;5123340;27;20032;-80
2022/09/30 08:21:14;;;;;;;10.10;8.13;;;;;;;7.85;79.70;98349.28;5108952;28;20038;-80
2022/09/30 08:23:40;;;;;;;10.00;7.43;;;;;;;8.09;78.99;98326.78;5110924;28;20425;-81
2022/09/30 08:26:08;;;;;;;9.80;7.00;;;;;;;8.15;78.13;98325.78;5092135;28;20116;-81
2022/09/30 08:28:34;;;;;;;9.27;7.35;;;;;;;8.20;78.02;98364.94;5105836;28;20019;-80
2022/09/30 08:31:09;;;;;;;7.95;6.82;;;;;;;8.24;78.95;98355.41;5109916;28;20510;-80
2022/09/30 08:33:34;;;;;;;9.10;6.65;;;;;;;8.22;79.05;98354.84;5101077;28;20080;-81
2022/09/30 08:36:08;;;;;;;9.25;7.05;;;;;;;8.39;78.68;98360.19;5091416;28;20031;-80
2022/09/30 08:38:34;;;;;;;14.82;8.85;;;;;;;8.02;80.91;98339.44;5091451;28;20039;-81
2022/09/30 08:41:29;;;;;;;15.82;10.32;;;;;;;7.40;84.88;98365.25;5080747;28;20031;-81
2022/09/30 08:44:19;;;;;;;10.77;8.57;;;;;;;7.92;81.63;98367.72;5108695;28;20031;-80
2022/09/30 08:46:51;;;;;;;11.40;7.97;;;;;;;8.23;79.48;98359.91;5109021;28;20455;-80
2022/09/30 08:49:34;;;;;;;8.48;7.15;;;;;;;8.72;77.92;98382.13;5104274;28;20155;-80
2022/09/30 08:52:02;;;;;;;9.73;7.60;;;;;;;8.45;79.80;98369.81;5101431;28;20062;-81
2022/09/30 08:54:33;;;;;;;11.55;8.13;;;;;;;8.51;79.86;98369.63;5087698;28;20035;-81
2022/09/30 08:57:01;;;;;;;10.65;8.05;;;;;;;8.39;81.96;98374.25;5099755;28;20495;-80
2022/09/30 08:59:39;;;;;;;9.70;7.57;;;;;;;8.58;78.83;98356.97;5104237;28;20353;-81
2022/09/30 09:02:13;;;;;;;8.90;7.72;;;;;;;8.74;79.08;98373.91;5104909;28;20091;-80
2022/09/30 09:04:39;;;;;;;8.48;7.25;;;;;;;8.91;78.28;98358.69;5106550;28;20023;-80
2022/09/30 09:07:24;;;;;;;10.55;7.60;;;;;;;8.83;78.37;98353.78;5104715;28;20050;-80
2022/09/30 09:09:55;;;;;;;17.60;8.98;;;;;;;8.61;82.14;98368.94;5104957;28;20502;-81
2022/09/30 09:12:21;;;;;;;13.13;9.65;;;;;;;8.22;85.00;98368.94;5104268;28;20102;-80
2022/09/30 09:15:30;;;;;;;13.60;10.52;;;;;;;8.07;85.67;98363.44;5102014;28;20478;-80
2022/09/30 09:18:27;;;;;;;14.27;10.10;;;;;;;7.92;87.97;98352.56;5105361;28;21233;-80
2022/09/30 09:20:59;;;;;;;15.60;11.05;;;;;;;7.94;86.73;98370.91;5104041;28;20027;-79
2022/09/30 09:23:27;;;;;;;9.90;8.63;;;;;;;7.88;87.46;98361.28;5104377;28;20118;-80
2022/09/30 09:25:54;;;;;;;10.98;9.38;;;;;;;8.33;83.60;98346.00;5103511;28;20549;-80
2022/09/30 09:28:39;;;;;;;8.98;7.80;;;;;;;8.44;81.95;98334.44;5100834;28;20111;-80
2022/09/30 09:31:10;;;;;;;15.68;10.15;;;;;;;8.28;84.59;98344.06;5102066;28;20055;-80
2022/09/30 09:33:38;;;;;;;18.83;11.70;;;;;;;8.19;86.65;98326.91;5102745;28;20042;-80
2022/09/30 09:36:32;;;;;;;14.95;11.13;;;;;;;8.09;89.51;98357.84;5103912;28;20506;-80
2022/09/30 09:39:16;;;;;;;13.65;10.10;;;;;;;8.21;88.68;98358.56;5104785;28;20138;-80
2022/09/30 09:41:53;;;;;;;11.18;7.80;;;;;;;8.65;83.36;98341.59;5105103;28;20701;-80
2022/09/30 09:44:43;;;;;;;13.68;8.32;;;;;;;8.85;82.25;98349.00;5105710;28;20080;-80
2022/09/30 09:47:15;;;;;;;16.85;10.85;;;;;;;8.38;87.63;98339.94;5104827;28;20020;-80
2022/09/30 09:49:48;;;;;;;10.10;8.23;;;;;;;8.68;84.01;98345.63;5090130;28;20039;-81
2022/09/30 09:52:31;;;;;;;17.75;10.35;;;;;;;8.55;86.02;98324.72;5101453;28;20084;-80
2022/09/30 09:54:56;;;;;;;15.43;11.90;;;;;;;8.37;88.14;98335.66;5116845;27;20034;-80
2022/09/30 09:57:26;;;;;;;13.55;9.77;;;;;;;8.89;84.97;98336.81;5084501;28;20031;-81
2022/09/30 10:03:05;;;;;;;11.32;9.02;;;;;;;9.26;85.33;98339.59;5102252;28;20037;-80
2022/09/30 10:05:41;;;;;;;12.85;9.68;;;;;;;9.55;83.09;98340.91;5101873;28;20023;-80
2022/09/30 10:08:18;;;;;;;10.48;9.32;;;;;;;9.58;81.90;98332.44;5105146;28;20118;-81
2022/09/30 10:10:52;;;;;;;12.65;9.43;;;;;;;9.70;81.93;98331.19;5104940;28;20483;-81
2022/09/30 10:13:28;;;;;;;11.75;9.32;;;;;;;9.81;82.79;98340.88;5091632;28;20106;-81
2022/09/30 10:15:56;;;;;;;13.68;9.10;;;;;;;9.88;81.57;98329.97;5084376;28;20031;-81
2022/09/30 10:18:30;;;;;;;16.55;11.98;;;;;;;9.52;84.62;98336.91;5119531;27;20031;-81
2022/09/30 10:21:01;;;;;;;11.77;10.52;;;;;;;9.82;82.37;98321.16;5102829;28;20456;-81
2022/09/30 10:23:33;;;;;;;10.20;8.77;;;;;;;9.87;83.07;98332.91;5100026;28;20032;-81
2022/09/30 10:26:03;;;;;;;14.10;11.48;;;;;;;9.76;83.42;98326.72;5108323;28;22112;-81
2022/09/30 10:28:43;;;;;;;12.45;9.68;;;;;;;10.13;81.95;98340.06;5106430;28;20538;-81
2022/09/30 10:31:14;;;;;;;16.05;10.73;;;;;;;9.91;82.35;98326.00;5091908;28;20039;-81
2022/09/30 10:33:46;;;;;;;17.77;11.38;;;;;;;9.72;82.45;98329.06;5100587;28;20110;-82
2022/09/30 10:36:15;;;;;;;13.93;11.10;;;;;;;9.87;84.51;98344.38;5106146;28;20020;-82
2022/09/30 10:38:55;;;;;;;9.90;8.57;;;;;;;10.27;81.38;98323.31;5104342;28;20023;-81
2022/09/30 10:41:27;;;;;;;10.73;9.63;;;;;;;10.24;82.25;98336.38;5105028;28;20039;-81
2022/09/30 10:43:58;;;;;;;10.60;9.45;;;;;;;9.98;81.91;98326.59;5102439;28;20035;-81
2022/09/30 10:46:31;;;;;;;17.85;10.23;;;;;;;10.17;82.46;98335.81;5083206;28;20150;-81
2022/09/30 10:48:57;;;;;;;10.25;8.38;;;;;;;10.55;81.27;98328.25;5101521;28;20029;-81
2022/09/30 10:51:33;;;;;;;12.07;9.00;;;;;;;10.66;80.44;98331.75;5083182;28;20066;-81
2022/09/30 10:53:58;;;;;;;10.07;8.25;;;;;;;10.72;80.65;98305.91;5100605;28;20031;-81
2022/09/30 10:56:39;;;;;;;10.07;8.23;;;;;;;10.60;81.00;98310.66;5081171;28;20016;-81
2022/09/30 10:59:18;;;;;;;8.75;7.30;;;;;;;10.88;79.66;98326.22;5098484;28;20543;-81
2022/09/30 11:01:58;;;;;;;9.40;5.75;;;;;;;10.91;75.70;98336.38;5094085;28;20070;-81
2022/09/30 11:04:27;;;;;;;5.80;4.35;;;;;;;10.97;74.96;98332.66;5100988;28;20031;-81
2022/09/30 11:06:59;;;;;;;4.55;4.15;;;;;;;10.97;73.75;98327.31;5106450;28;20333;-81
2022/09/30 11:09:34;;;;;;;5.25;4.20;;;;;;;10.97;74.67;98332.66;5106918;28;20032;-81
2022/09/30 11:12:09;;;;;;;4.53;3.83;;;;;;;10.86;73.93;98312.34;5107133;28;20368;-81
2022/09/30 11:14:44;;;;;;;4.40;3.88;;;;;;;10.93;74.29;98315.56;5110077;28;20395;-82
2022/09/30 11:17:26;;;;;;;4.00;3.65;;;;;;;11.09;73.31;98328.72;5108534;28;20435;-82
2022/09/30 11:20:14;;;;;;;6.05;3.50;;;;;;;11.18;72.81;98334.34;5106123;28;20483;-81
2022/09/30 11:22:51;;;;;;;6.35;4.68;;;;;;;11.24;72.13;98327.91;5100779;28;20432;-82
2022/09/30 11:25:24;;;;;;;8.75;4.50;;;;;;;11.30;72.00;98322.31;5114935;27;20027;-81
2022/09/30 11:28:02;;;;;;;8.18;4.20;;;;;;;11.55;71.97;98326.06;5125704;27;20122;-81
2022/09/30 11:30:50;;;;;;;5.97;3.53;;;;;;;11.64;71.23;98327.94;5108831;28;20019;-81
2022/09/30 11:33:28;;;;;;;4.65;3.60;;;;;;;11.68;70.75;98323.72;5105574;28;20027;-81
2022/09/30 11:36:02;;;;;;;5.00;3.50;;;;;;;11.79;70.14;98337.88;5098372;28;20115;-81
2022/09/30 11:39:21;;;;;;;5.97;3.55;;;;;;;11.80;69.71;98334.09;5108283;28;20103;-81
2022/09/30 11:42:05;;;;;;;4.63;3.90;;;;;;;11.82;69.04;98324.75;5063260;28;20040;-81
2022/09/30 11:44:35;;;;;;;5.38;3.33;;;;;;;12.00;68.50;98324.19;5109616;27;20101;-81
2022/09/30 11:47:04;;;;;;;4.25;3.72;;;;;;;12.10;68.12;98335.97;5103474;28;20055;-81
2022/09/30 11:49:33;;;;;;;7.70;3.53;;;;;;;12.24;67.52;98348.50;5099576;28;20026;-82
2022/09/30 11:52:13;;;;;;;3.67;3.33;;;;;;;12.30;66.66;98339.38;5100290;28;20119;-81
2022/09/30 11:55:00;;;;;;;6.82;3.92;;;;;;;12.35;66.73;98346.59;5105108;28;20089;-82
2022/09/30 11:57:38;;;;;;;;;;;;;;;12.35;66.51;98338.56;5110906;28;20038;-81
2022/09/30 12:00:18;;;;;;;5.47;3.08;;;;;;;12.47;66.08;98342.53;5106811;28;20026;-82
2022/09/30 12:02:46;;;;;;;5.07;4.15;;;;;;;12.41;66.40;98334.78;5097400;28;20045;-82
2022/09/30 12:05:13;;;;;;;4.28;3.00;;;;;;;12.62;66.29;98328.31;5102683;28;20485;-82
2022/09/30 12:07:44;;;;;;;4.38;3.03;;;;;;;12.83;66.06;98327.16;5109752;28;20029;-81